createdAt,value
2023-12-11T00:02:31.253Z,1.30
2023-12-11T00:05:17.196Z,2.38
2023-12-11T00:08:02.475Z,1.95
2023-12-11T00:10:48.387Z,2.83
2023-12-11T00:13:33.754Z,2.28
2023-12-11T00:16:19.716Z,1.85
2023-12-11T00:19:05.636Z,1.63
2023-12-11T00:21:51.534Z,1.67
2023-12-11T00:24:37.318Z,1.80
2023-12-11T00:27:22.947Z,1.50
2023-12-11T00:30:10.293Z,1.30
2023-12-11T00:32:55.883Z,1.45
2023-12-11T00:35:41.307Z,1.40
2023-12-11T00:38:26.992Z,1.27
2023-12-11T00:41:13.080Z,1.35
2023-12-11T00:43:58.716Z,1.45
2023-12-11T00:46:44.433Z,1.73
2023-12-11T00:49:30.183Z,1.30
2023-12-11T00:52:15.916Z,1.55
2023-12-11T00:55:01.274Z,1.40
2023-12-11T00:57:46.577Z,1.67
2023-12-11T01:00:32.318Z,1.45
2023-12-11T01:03:18.149Z,1.30
2023-12-11T01:06:03.755Z,1.88
2023-12-11T01:08:49.081Z,1.42
2023-12-11T01:11:34.749Z,1.30
2023-12-11T01:14:20.504Z,1.40
2023-12-11T01:17:36.429Z,1.70
2023-12-11T01:20:12.012Z,1.55
2023-12-11T01:22:57.749Z,1.38
2023-12-11T01:25:43.237Z,1.30
2023-12-11T01:28:28.688Z,1.50
2023-12-11T01:31:14.220Z,1.40
2023-12-11T01:34:00.137Z,1.17
2023-12-11T01:36:46.061Z,1.30
2023-12-11T01:39:31.785Z,1.30
2023-12-11T01:42:18.235Z,1.27
2023-12-11T01:45:04.161Z,1.40
2023-12-11T01:47:49.643Z,1.38
2023-12-11T01:50:35.273Z,1.60
2023-12-11T01:53:20.734Z,1.50
2023-12-11T01:56:06.579Z,1.70
2023-12-11T01:58:52.692Z,1.38
2023-12-11T02:01:38.875Z,1.60
2023-12-11T02:04:25.401Z,1.60
2023-12-11T02:07:11.206Z,1.70
2023-12-11T02:09:56.496Z,1.40
2023-12-11T02:12:43.887Z,1.73
2023-12-11T02:15:46.344Z,1.90
2023-12-11T02:18:32.246Z,1.77
2023-12-11T02:21:18.334Z,1.83
2023-12-11T02:24:11.505Z,1.80
2023-12-11T02:26:57.004Z,1.90
2023-12-11T02:29:42.638Z,2.08
2023-12-11T02:32:28.317Z,1.90
2023-12-11T02:35:13.461Z,1.95
2023-12-11T02:37:59.161Z,1.90
2023-12-11T02:40:44.695Z,2.75
2023-12-11T02:43:30.765Z,2.05
2023-12-11T02:46:16.315Z,1.85
2023-12-11T02:49:01.714Z,2.30
2023-12-11T02:51:47.285Z,2.20
2023-12-11T02:54:32.915Z,2.15
2023-12-11T02:57:18.277Z,1.83
2023-12-11T03:00:04.374Z,1.92
2023-12-11T03:02:49.710Z,1.70
2023-12-11T03:05:35.636Z,1.80
2023-12-11T03:08:20.973Z,1.95
2023-12-11T03:11:06.587Z,1.80
2023-12-11T03:13:52.146Z,1.75
2023-12-11T03:16:37.879Z,1.70
2023-12-11T03:19:23.409Z,1.45
2023-12-11T03:22:09.298Z,2.00
2023-12-11T03:24:55.986Z,1.80
2023-12-11T03:27:41.782Z,1.83
2023-12-11T03:30:27.353Z,1.92
2023-12-11T03:33:13.168Z,1.90
2023-12-11T03:35:58.997Z,1.60
2023-12-11T03:38:44.665Z,1.75
2023-12-11T03:41:30.274Z,1.70
2023-12-11T03:44:15.822Z,1.75
2023-12-11T03:47:01.414Z,1.42
2023-12-11T03:49:47.130Z,1.52
2023-12-11T03:52:32.746Z,1.70
2023-12-11T03:55:18.176Z,1.50
2023-12-11T03:58:03.754Z,1.98
2023-12-11T04:00:49.532Z,1.55
2023-12-11T04:03:35.058Z,1.70
2023-12-11T04:06:20.731Z,1.70
2023-12-11T04:09:06.204Z,1.80
2023-12-11T04:11:51.898Z,1.60
2023-12-11T04:14:37.354Z,1.60
2023-12-11T04:17:23.501Z,1.70
2023-12-11T04:20:09.499Z,1.90
2023-12-11T04:22:55.212Z,2.20
2023-12-11T04:25:40.764Z,2.30
2023-12-11T04:28:27.375Z,2.65
2023-12-11T04:31:13.206Z,2.30
2023-12-11T04:33:58.761Z,2.10
2023-12-11T04:36:47.547Z,2.38
2023-12-11T04:39:32.839Z,2.20
2023-12-11T04:42:18.431Z,2.08
2023-12-11T04:45:04.340Z,2.45
2023-12-11T04:47:49.755Z,2.67
2023-12-11T04:50:35.242Z,2.40
2023-12-11T04:53:20.827Z,2.20
2023-12-11T04:56:07.820Z,2.97
2023-12-11T04:58:53.537Z,2.45
2023-12-11T05:01:39.502Z,2.63
2023-12-11T05:04:25.135Z,2.58
2023-12-11T05:07:10.939Z,3.42
2023-12-11T05:09:56.650Z,3.03
2023-12-11T05:12:42.413Z,3.20
2023-12-11T05:15:28.221Z,3.28
2023-12-11T05:18:13.641Z,2.95
2023-12-11T05:20:59.147Z,2.63
2023-12-11T05:23:44.601Z,2.65
2023-12-11T05:26:29.869Z,2.50
2023-12-11T05:29:15.712Z,2.58
2023-12-11T05:32:01.400Z,2.30
2023-12-11T05:34:47.064Z,3.33
2023-12-11T05:37:32.805Z,2.55
2023-12-11T05:40:22.683Z,2.22
2023-12-11T05:43:09.307Z,2.95
2023-12-11T05:45:54.884Z,3.03
2023-12-11T05:48:40.720Z,3.08
2023-12-11T05:51:28.428Z,2.80
2023-12-11T05:54:14.034Z,2.90
2023-12-11T05:56:59.904Z,2.42
2023-12-11T05:59:46.160Z,2.60
2023-12-11T06:02:31.546Z,3.20
2023-12-11T06:05:17.375Z,2.83
2023-12-11T06:08:03.378Z,2.40
2023-12-11T06:10:48.740Z,2.60
2023-12-11T06:13:34.481Z,2.80
2023-12-11T06:16:21.637Z,2.83
2023-12-11T06:19:07.451Z,2.63
2023-12-11T06:21:53.115Z,2.55
2023-12-11T06:24:42.534Z,2.50
2023-12-11T06:27:29.442Z,2.35
2023-12-11T06:30:16.762Z,2.60
2023-12-11T06:33:02.554Z,3.00
2023-12-11T06:35:48.005Z,2.47
2023-12-11T06:38:33.882Z,2.70
2023-12-11T06:41:19.882Z,3.15
2023-12-11T06:44:05.564Z,3.60
2023-12-11T06:46:51.047Z,3.10
2023-12-11T06:49:38.742Z,3.08
2023-12-11T06:52:24.324Z,4.13
2023-12-11T06:55:09.951Z,3.20
2023-12-11T06:57:55.463Z,3.15
2023-12-11T07:00:41.131Z,2.60
2023-12-11T07:03:27.230Z,3.13
2023-12-11T07:06:12.668Z,2.92
2023-12-11T07:08:58.504Z,3.10
2023-12-11T07:11:44.304Z,3.22
2023-12-11T07:14:29.766Z,3.47
2023-12-11T07:17:15.308Z,3.20
2023-12-11T07:20:01.353Z,3.38
2023-12-11T07:22:47.479Z,2.83
2023-12-11T07:25:33.180Z,3.42
2023-12-11T07:28:19.149Z,3.03
2023-12-11T07:31:07.037Z,3.15
2023-12-11T07:33:55.258Z,3.00
2023-12-11T07:36:41.851Z,3.15
2023-12-11T07:39:27.387Z,3.78
2023-12-11T07:42:14.567Z,4.18
2023-12-11T07:45:00.499Z,4.50
2023-12-11T07:47:46.171Z,4.03
2023-12-11T07:50:31.686Z,4.00
2023-12-11T07:53:17.216Z,4.22
2023-12-11T07:56:02.708Z,5.15
2023-12-11T07:58:48.222Z,3.65
2023-12-11T08:01:33.992Z,4.43
2023-12-11T08:04:19.697Z,4.10
2023-12-11T08:07:05.991Z,3.70
2023-12-11T08:09:51.604Z,4.00
2023-12-11T08:12:37.071Z,4.85
2023-12-11T08:15:22.456Z,4.38
2023-12-11T08:18:07.985Z,8.95
2023-12-11T08:20:53.611Z,5.88
2023-12-11T08:23:41.004Z,5.40
2023-12-11T08:26:26.538Z,4.75
2023-12-11T08:29:12.170Z,4.60
2023-12-11T08:31:57.652Z,3.60
2023-12-11T08:34:43.558Z,3.22
2023-12-11T08:37:29.472Z,3.45
2023-12-11T08:40:17.045Z,3.10
2023-12-11T08:43:02.842Z,2.65
2023-12-11T08:45:48.565Z,2.53
2023-12-11T08:48:34.435Z,3.30
2023-12-11T08:51:20.451Z,3.10
2023-12-11T08:54:06.796Z,2.70
2023-12-11T08:56:52.573Z,3.05
2023-12-11T08:59:39.017Z,2.88
2023-12-11T09:02:24.362Z,3.00
2023-12-11T09:05:10.244Z,3.70
2023-12-11T09:07:56.476Z,3.60
2023-12-11T09:10:42.225Z,3.08
2023-12-11T09:13:29.643Z,2.95
2023-12-11T09:16:15.573Z,2.58
2023-12-11T09:19:01.027Z,3.08
2023-12-11T09:21:46.892Z,2.58
2023-12-11T09:24:32.669Z,2.55
2023-12-11T09:27:18.449Z,2.42
2023-12-11T09:30:04.158Z,2.90
2023-12-11T09:32:49.680Z,2.40
2023-12-11T09:35:35.482Z,2.30
2023-12-11T09:38:21.172Z,1.98
2023-12-11T09:41:08.688Z,2.72
2023-12-11T09:43:55.133Z,2.80
2023-12-11T09:46:51.244Z,2.25
2023-12-11T09:52:26.094Z,1.17
2023-12-11T09:55:11.748Z,1.33
2023-12-11T09:57:58.209Z,1.20
2023-12-11T10:00:44.536Z,0.90
2023-12-11T10:03:30.243Z,0.63
2023-12-11T10:06:17.501Z,0.68
2023-12-11T10:09:05.385Z,0.88
2023-12-11T10:12:01.033Z,0.90
2023-12-11T10:15:02.988Z,1.08
2023-12-11T10:18:02.001Z,0.60
2023-12-11T10:20:55.352Z,0.75
2023-12-11T10:23:41.007Z,1.00
2023-12-11T10:26:26.761Z,1.17
2023-12-11T10:29:23.287Z,0.80
2023-12-11T10:32:10.042Z,1.00
2023-12-11T10:34:55.521Z,0.73
2023-12-11T10:37:43.513Z,1.00
2023-12-11T10:40:40.179Z,0.95
2023-12-11T10:43:25.882Z,0.73
2023-12-11T10:46:11.940Z,0.82
2023-12-11T10:49:00.482Z,1.00
2023-12-11T10:51:46.390Z,1.02
2023-12-11T10:54:32.471Z,0.75
2023-12-11T10:57:18.702Z,0.80
2023-12-11T11:00:06.093Z,0.60
2023-12-11T11:02:55.824Z,0.50
2023-12-11T11:05:42.198Z,0.50
2023-12-11T11:08:38.534Z,0.45
2023-12-11T11:11:30.318Z,0.60
2023-12-11T11:14:19.068Z,0.70
2023-12-11T11:17:04.387Z,0.50
2023-12-11T11:20:23.096Z,0.60
2023-12-11T11:23:15.309Z,0.73
2023-12-11T11:26:01.337Z,1.40
2023-12-11T11:28:51.947Z,0.88
2023-12-11T11:31:52.164Z,1.27
2023-12-11T11:34:40.886Z,0.90
2023-12-11T11:37:49.186Z,0.80
2023-12-11T11:40:37.788Z,0.70
2023-12-11T11:43:24.922Z,0.50
2023-12-11T11:46:10.392Z,0.70
2023-12-11T11:48:56.132Z,0.80
2023-12-11T11:51:41.835Z,0.70
2023-12-11T11:54:30.736Z,0.70
2023-12-11T11:57:16.233Z,0.60
2023-12-11T12:00:01.989Z,0.52
2023-12-11T12:02:47.389Z,0.60
2023-12-11T12:05:33.404Z,0.60
2023-12-11T12:08:19.398Z,0.65
2023-12-11T12:11:05.582Z,0.60
2023-12-11T12:13:51.240Z,0.50
2023-12-11T12:16:36.848Z,0.50
2023-12-11T12:19:33.361Z,0.80
2023-12-11T12:22:19.381Z,0.90
2023-12-11T12:25:14.687Z,1.10
2023-12-11T12:28:06.764Z,1.15
2023-12-11T12:30:52.752Z,1.17
2023-12-11T12:33:38.833Z,1.17
2023-12-11T12:36:24.625Z,1.10
2023-12-11T12:39:12.471Z,0.82
2023-12-11T12:41:58.014Z,0.70
2023-12-11T12:44:43.595Z,0.90
2023-12-11T12:47:29.885Z,0.70
2023-12-11T12:50:21.154Z,0.70
2023-12-11T12:53:17.410Z,0.60
2023-12-11T12:56:14.298Z,0.30
2023-12-11T12:59:03.507Z,0.55
2023-12-11T13:01:49.986Z,0.52
2023-12-11T13:04:49.788Z,0.52
2023-12-11T13:07:36.008Z,0.57
2023-12-11T13:10:21.504Z,0.40
2023-12-11T13:13:16.046Z,0.50
2023-12-11T13:16:01.473Z,0.63
2023-12-11T13:18:51.256Z,0.57
2023-12-11T13:21:37.220Z,0.63
2023-12-11T13:24:25.401Z,0.40
2023-12-11T13:27:11.177Z,0.63
2023-12-11T13:29:56.644Z,0.77
2023-12-11T13:32:42.442Z,0.50
2023-12-11T13:35:27.902Z,0.50
2023-12-11T13:38:13.579Z,0.52
2023-12-11T13:40:59.210Z,0.43
2023-12-11T13:43:44.974Z,0.47
2023-12-11T13:46:31.036Z,0.50
2023-12-11T13:49:16.855Z,0.60
2023-12-11T13:52:02.448Z,0.63
2023-12-11T13:54:48.271Z,0.70
2023-12-11T13:57:35.108Z,0.60
2023-12-11T14:00:20.730Z,0.50
2023-12-11T14:03:06.615Z,0.75
2023-12-11T14:05:53.059Z,0.63
2023-12-11T14:08:38.831Z,0.70
2023-12-11T14:11:24.481Z,0.88
2023-12-11T14:14:10.126Z,0.73
2023-12-11T14:16:55.825Z,0.70
2023-12-11T14:19:41.600Z,0.80
2023-12-11T14:22:26.974Z,0.70
2023-12-11T14:25:13.330Z,0.70
2023-12-11T14:28:06.317Z,0.70
2023-12-11T14:30:54.269Z,0.82
2023-12-11T14:33:40.489Z,1.00
2023-12-11T14:36:27.708Z,1.00
2023-12-11T14:39:13.328Z,0.93
2023-12-11T14:41:58.722Z,0.60
2023-12-11T14:44:44.713Z,0.82
2023-12-11T14:47:30.714Z,0.90
2023-12-11T14:50:16.809Z,0.90
2023-12-11T14:53:02.582Z,1.13
2023-12-11T14:55:48.208Z,0.73
2023-12-11T14:58:36.297Z,1.00
2023-12-11T15:01:22.144Z,0.90
2023-12-11T15:04:07.863Z,0.90
2023-12-11T15:06:54.420Z,0.70
2023-12-11T15:09:40.871Z,0.98
2023-12-11T15:12:26.298Z,1.10
2023-12-11T15:15:12.560Z,0.90
2023-12-11T15:17:58.159Z,0.80
2023-12-11T15:20:44.529Z,0.73
2023-12-11T15:23:30.225Z,1.10
2023-12-11T15:26:20.550Z,0.77
2023-12-11T15:29:08.659Z,0.82
2023-12-11T15:31:54.125Z,0.90
2023-12-11T15:34:42.562Z,1.05
2023-12-11T15:37:28.255Z,1.10
2023-12-11T15:40:14.461Z,1.20
2023-12-11T15:42:59.907Z,1.38
2023-12-11T15:45:45.644Z,1.55
2023-12-11T15:48:31.226Z,1.20
2023-12-11T15:51:19.063Z,1.40
2023-12-11T15:54:04.643Z,1.30
2023-12-11T15:56:50.046Z,1.08
2023-12-11T15:59:35.403Z,1.38
2023-12-11T16:02:20.969Z,1.00
2023-12-11T16:05:06.662Z,0.98
2023-12-11T16:07:52.139Z,1.10
2023-12-11T16:10:37.840Z,0.90
2023-12-11T16:13:23.158Z,0.90
2023-12-11T16:16:17.295Z,1.00
2023-12-11T16:19:02.853Z,0.80
2023-12-11T16:21:48.782Z,1.40
2023-12-11T16:24:34.543Z,1.30
2023-12-11T16:27:20.192Z,1.20
2023-12-11T16:30:06.218Z,1.13
2023-12-11T16:32:51.760Z,1.70
2023-12-11T16:35:37.935Z,1.58
2023-12-11T16:38:23.720Z,1.30
2023-12-11T16:41:10.366Z,1.35
2023-12-11T16:43:56.280Z,1.20
2023-12-11T16:46:45.494Z,1.95
2023-12-11T16:49:32.628Z,3.97
2023-12-11T16:52:19.977Z,3.25
2023-12-11T16:55:07.658Z,1.70
2023-12-11T16:57:53.612Z,1.40
2023-12-11T17:00:39.198Z,1.60
2023-12-11T17:03:24.741Z,2.95
2023-12-11T17:06:22.581Z,2.03
2023-12-11T17:09:08.196Z,2.33
2023-12-11T17:11:53.580Z,1.73
2023-12-11T17:14:39.753Z,2.22
2023-12-11T17:17:25.394Z,2.15
2023-12-11T17:20:11.567Z,2.60
2023-12-11T17:22:56.895Z,1.65
2023-12-11T17:25:42.355Z,1.67
2023-12-11T17:28:27.835Z,1.40
2023-12-11T17:31:15.330Z,1.92
2023-12-11T17:34:00.946Z,1.70
2023-12-11T17:36:46.332Z,2.30
2023-12-11T17:39:31.937Z,1.60
2023-12-11T17:42:17.592Z,1.40
2023-12-11T17:45:03.508Z,1.60
2023-12-11T17:47:49.032Z,1.50
2023-12-11T17:50:36.777Z,1.40
2023-12-11T17:53:22.158Z,1.55
2023-12-11T17:56:12.533Z,1.55
2023-12-11T17:58:58.270Z,1.60
2023-12-11T18:01:44.049Z,1.40
2023-12-11T18:04:29.720Z,1.25
2023-12-11T18:07:15.312Z,1.30
2023-12-11T18:10:00.724Z,1.50
2023-12-11T18:12:46.634Z,1.58
2023-12-11T18:15:32.070Z,1.60
2023-12-11T18:18:17.544Z,1.45
2023-12-11T18:21:03.357Z,1.80
2023-12-11T18:23:48.655Z,1.58
2023-12-11T18:26:34.241Z,2.05
2023-12-11T18:29:22.729Z,2.15
2023-12-11T18:32:10.239Z,2.13
2023-12-11T18:34:56.016Z,2.38
2023-12-11T18:37:41.450Z,2.42
2023-12-11T18:40:29.561Z,2.70
2023-12-11T18:43:15.548Z,2.35
2023-12-11T18:46:00.891Z,2.42
2023-12-11T18:48:46.555Z,2.10
2023-12-11T18:51:33.068Z,2.30
2023-12-11T18:54:18.351Z,1.95
2023-12-11T18:57:04.045Z,1.95
2023-12-11T18:59:49.437Z,2.10
2023-12-11T19:02:35.428Z,2.20
2023-12-11T19:05:21.425Z,2.92
2023-12-11T19:08:06.938Z,3.10
2023-12-11T19:10:52.592Z,2.70
2023-12-11T19:13:38.550Z,4.40
2023-12-11T19:16:24.228Z,3.17
2023-12-11T19:19:09.818Z,2.75
2023-12-11T19:21:55.280Z,3.10
2023-12-11T19:24:40.773Z,3.05
2023-12-11T19:27:27.594Z,2.92
2023-12-11T19:30:13.561Z,2.65
2023-12-11T19:32:59.334Z,2.63
2023-12-11T19:35:44.877Z,1.90
2023-12-11T19:38:30.322Z,1.80
2023-12-11T19:41:16.075Z,2.30
2023-12-11T19:44:01.615Z,2.10
2023-12-11T19:46:47.301Z,2.30
2023-12-11T19:49:32.733Z,2.97
2023-12-11T19:52:18.534Z,2.33
2023-12-11T19:55:04.024Z,1.63
2023-12-11T19:57:49.608Z,1.25
2023-12-11T20:00:34.995Z,1.60
2023-12-11T20:03:20.685Z,1.23
2023-12-11T20:06:06.496Z,1.38
2023-12-11T20:08:52.347Z,1.10
2023-12-11T20:11:37.676Z,1.17
2023-12-11T20:14:23.802Z,1.50
2023-12-11T20:17:09.663Z,1.33
2023-12-11T20:19:57.740Z,1.40
2023-12-11T20:22:45.222Z,2.10
2023-12-11T20:25:30.762Z,1.92
2023-12-11T20:28:16.236Z,2.08
2023-12-11T20:31:01.934Z,2.22
2023-12-11T20:33:47.988Z,1.88
2023-12-11T20:36:34.543Z,1.98
2023-12-11T20:39:19.827Z,1.92
2023-12-11T20:42:05.795Z,2.53
2023-12-11T20:44:54.315Z,2.85
2023-12-11T20:47:39.938Z,2.58
2023-12-11T20:50:25.559Z,2.55
2023-12-11T20:53:11.179Z,2.70
2023-12-11T20:55:56.794Z,3.85
2023-12-11T20:58:42.469Z,3.85
2023-12-11T21:01:33.274Z,3.33
2023-12-11T21:04:19.474Z,3.30
2023-12-11T21:07:04.886Z,3.15
2023-12-11T21:09:50.678Z,2.60
2023-12-11T21:12:36.302Z,2.67
2023-12-11T21:15:23.647Z,2.20
2023-12-11T21:18:14.860Z,2.22
2023-12-11T21:21:00.299Z,3.00
2023-12-11T21:23:46.992Z,2.90
2023-12-11T21:26:33.402Z,3.20
2023-12-11T21:29:19.106Z,3.65
2023-12-11T21:32:05.581Z,3.30
2023-12-11T21:34:51.624Z,3.05
2023-12-11T21:37:37.207Z,3.70
2023-12-11T21:40:22.889Z,3.38
2023-12-11T21:43:08.555Z,3.15
2023-12-11T21:45:54.613Z,3.10
2023-12-11T21:48:40.851Z,3.42
2023-12-11T21:51:27.405Z,2.63
2023-12-11T21:54:13.459Z,3.70
2023-12-11T21:56:59.285Z,3.35
2023-12-11T21:59:48.166Z,3.83
2023-12-11T22:02:34.477Z,4.65
2023-12-11T22:05:20.188Z,4.07
2023-12-11T22:08:05.728Z,3.63
2023-12-11T22:10:51.555Z,4.53
2023-12-11T22:13:36.952Z,3.30
2023-12-11T22:16:22.451Z,4.07
2023-12-11T22:19:12.289Z,3.10
2023-12-11T22:21:57.843Z,4.00
2023-12-11T22:24:43.254Z,3.97
2023-12-11T22:27:28.859Z,3.40
2023-12-11T22:30:15.447Z,2.97
2023-12-11T22:33:01.307Z,3.20
2023-12-11T22:35:46.876Z,4.15
2023-12-11T22:38:32.503Z,4.15
2023-12-11T22:41:28.348Z,3.30
2023-12-11T22:44:13.880Z,3.65
2023-12-11T22:46:59.740Z,3.38
2023-12-11T22:49:45.609Z,3.50
2023-12-11T22:52:31.412Z,4.60
2023-12-11T22:55:17.388Z,4.40
2023-12-11T22:58:13.516Z,3.28
2023-12-11T23:01:02.003Z,4.00
2023-12-11T23:03:48.808Z,3.72
2023-12-11T23:06:35.194Z,2.25
2023-12-11T23:09:20.533Z,2.35
2023-12-11T23:12:07.212Z,1.80
2023-12-11T23:14:52.943Z,1.40
2023-12-11T23:17:38.480Z,1.25
2023-12-11T23:20:24.109Z,1.20
2023-12-11T23:23:09.824Z,1.10
2023-12-11T23:26:01.414Z,1.10
2023-12-11T23:28:51.016Z,1.13
2023-12-11T23:31:36.713Z,1.40
2023-12-11T23:34:22.862Z,1.30
2023-12-11T23:37:08.140Z,1.30
2023-12-11T23:39:53.858Z,1.30
2023-12-11T23:42:39.334Z,1.65
2023-12-11T23:45:24.948Z,0.90
2023-12-11T23:48:10.496Z,1.00
2023-12-11T23:50:56.103Z,1.02
2023-12-11T23:53:43.906Z,1.50
2023-12-11T23:56:29.180Z,1.23
2023-12-11T23:59:14.742Z,1.33
